Lotheni — ZR8530 — position and weather

sailwx.info

Track history (hours):
 
Tides and Currents Weather Stations Pressure Air Temp Water Temp Dewpoint Dewpoint Depression Visibility Wind Speed Wind Dir Waves Ship Positions

Lotheni

Last reported at 2014-Jul-23 14:09 UTC. Time now 2014-Jul-23 16:02 UTC.
Position S 29°52' E 031°02'.

Type: Tug. MMSI: 601135800.

Date/timePositionNaut miles runAvg speedWind from/ knotsBaromVisibWave heightAir tempDewpointWater temp
2014-Jul-23 14:09S 29°52' E 031°02'1 1.9
2014-Jul-23 13:25S 29°53' E 031°03'1 0.3
2014-Jul-23 09:32S 29°52' E 031°02'1 1.0
2014-Jul-23 08:30S 29°53' E 031°02'1 0.4
2014-Jul-23 05:33S 29°52' E 031°03'1 0.1
2014-Jul-22 20:33S 29°53' E 031°02'1 1.0
2014-Jul-22 19:31S 29°53' E 031°03'2 1.1
2014-Jul-22 18:04S 29°53' E 031°01'0 0.3
2014-Jul-22 17:23S 29°53' E 031°02'1 0.2
2014-Jul-22 12:33S 29°53' E 031°03'2 1.5
2014-Jul-22 11:31S 29°53' E 031°01'2 0.3
2014-Jul-22 06:33S 29°53' E 031°03'1 0.1
2014-Jul-21 22:33S 29°53' E 031°02'0 0.4
2014-Jul-21 21:33S 29°52' E 031°02'1 0.5
2014-Jul-21 20:33S 29°52' E 031°03'1 2.7
2014-Jul-21 20:15S 29°52' E 031°02'1 0.7
2014-Jul-21 19:26S 29°53' E 031°02'1 1.5
2014-Jul-21 18:33S 29°53' E 031°03'1 0.3
2014-Jul-21 15:20S 29°52' E 031°02'1 1.1
2014-Jul-21 14:33S 29°53' E 031°01'1 0.6
2014-Jul-21 13:22S 29°53' E 031°02'0 0.1
2014-Jul-21 11:25S 29°52' E 031°02'0 0.2
2014-Jul-21 10:32S 29°52' E 031°02'1 0.5
2014-Jul-21 09:26S 29°52' E 031°03'0 0.2
2014-Jul-21 08:33S 29°53' E 031°03'0 0.1
2014-Jul-21 07:22S 29°52' E 031°03'1 0.5
2014-Jul-21 06:10S 29°52' E 031°02'1 0.2
2014-Jul-21 01:24S 29°53' E 031°02'1 0.1
2014-Jul-20 18:12S 29°53' E 031°01'1 1.0
2014-Jul-20 17:33S 29°52' E 031°02'0 0.0
2014-Jul-20 14:32S 29°53' E 031°02'0 0.2
2014-Jul-20 12:33S 29°53' E 031°02'1 0.3
2014-Jul-20 09:29S 29°52' E 031°02'1 1.4
2014-Jul-20 08:33S 29°53' E 031°03'0 0.3
2014-Jul-20 07:34S 29°52' E 031°03'0 0.0
2014-Jul-20 06:34S 29°52' E 031°03'1 0.5
2014-Jul-20 04:10S 29°52' E 031°02'1 0.4
2014-Jul-20 02:30S 29°52' E 031°02'0 0.1
2014-Jul-19 22:32S 29°53' E 031°02'1 0.7
2014-Jul-19 21:30S 29°52' E 031°03'1 0.8
2014-Jul-19 20:33S 29°52' E 031°04'2 1.6
2014-Jul-19 19:24S 29°53' E 031°01'0 0.2
2014-Jul-19 18:27S 29°53' E 031°01'0 0.5
2014-Jul-19 17:32S 29°52' E 031°02'0 0.1
2014-Jul-19 13:28S 29°52' E 031°02'1 0.6
2014-Jul-19 12:31S 29°53' E 031°03'0 0.2
2014-Jul-19 11:26S 29°53' E 031°03'1 0.0
2014-Jul-18 14:31S 29°53' E 031°03'0 0.1
2014-Jul-18 09:33S 29°53' E 031°03'1 0.3
2014-Jul-18 06:18S 29°53' E 031°02'1 0.2
2014-Jul-18 01:05S 29°53' E 031°00'2 3.7
2014-Jul-18 00:32S 29°53' E 031°03'1 0.3
2014-Jul-17 20:32S 29°52' E 031°02'1 0.6
2014-Jul-17 19:32S 29°52' E 031°02'1 0.9
2014-Jul-17 18:32S 29°53' E 031°03'0 0.5
2014-Jul-17 17:32S 29°53' E 031°03'1 0.4
2014-Jul-17 14:03S 29°53' E 031°01'1 0.1
2014-Jul-16 23:33S 29°52' E 031°02'0 0.1
2014-Jul-16 19:04S 29°53' E 031°02'1 1.2
2014-Jul-16 18:15S 29°52' E 031°02'0 0.3
2014-Jul-16 17:31S 29°52' E 031°02'0 0.0
2014-Jul-16 15:33S 29°52' E 031°02'1 0.8
2014-Jul-16 14:30S 29°53' E 031°02'0 0.4
2014-Jul-16 13:31S 29°52' E 031°02'0 0.0
2014-Jul-16 10:33S 29°53' E 031°02'0 0.3
2014-Jul-16 09:23S 29°53' E 031°02'0 0.0
2014-Jul-16 08:29S 29°53' E 031°02'0 0.1
2014-Jul-16 07:17S 29°53' E 031°02'1 1.0
2014-Jul-16 06:27S 29°53' E 031°03'1 1.1
2014-Jul-16 05:33S 29°52' E 031°04'1 0.4
2014-Jul-16 02:29S 29°53' E 031°02'0 0.1
2014-Jul-15 19:18S 29°52' E 031°03'0 0.2
2014-Jul-15 18:28S 29°52' E 031°03'1 0.6
2014-Jul-15 17:15S 29°53' E 031°02'1 0.3
2014-Jul-15 14:33S 29°53' E 031°02'0 0.5
2014-Jul-15 13:33S 29°53' E 031°03'1 0.2
2014-Jul-15 07:19S 29°52' E 031°02'1 0.7
2014-Jul-15 06:33S 29°53' E 031°02'1 0.7
2014-Jul-15 05:26S 29°53' E 031°02'1 0.2
2014-Jul-15 00:28S 29°53' E 031°02'1 0.2
2014-Jul-14 21:17S 29°52' E 031°02'1 0.9
2014-Jul-14 20:26S 29°53' E 031°01'1 0.2
2014-Jul-14 15:17S 29°52' E 031°02'1 0.3
2014-Jul-14 11:29S 29°53' E 031°02'0 0.0
2014-Jul-14 10:30S 29°53' E 031°02'1 1.1
2014-Jul-14 09:31S 29°53' E 031°03'0 0.3
2014-Jul-14 08:29S 29°52' E 031°03'0 0.0
2014-Jul-14 06:28S 29°52' E 031°03'1 0.2
2014-Jul-14 01:28S 29°53' E 031°02'0 0.2
2014-Jul-14 00:24S 29°53' E 031°02'1 0.1
2014-Jul-13 17:25S 29°53' E 031°02'1 0.3
2014-Jul-13 14:31S 29°52' E 031°02'  
Track history (hours):
 
Tides and Currents Weather Stations Pressure Air Temp Water Temp Dewpoint Dewpoint Depression Visibility Wind Speed Wind Dir Waves Ship Positions

Lotheni

Last reported at 2014-Jul-23 14:09 UTC. Time now 2014-Jul-23 16:02 UTC.
Position S 29°52' E 031°02'.

Type: Tug. MMSI: 601135800.

Date/timePositionNaut miles runAvg speedWind from/ knotsBaromVisibWave heightAir tempDewpointWater temp
2014-Jul-23 14:09S 29°52' E 031°02'1 1.9
2014-Jul-23 13:25S 29°53' E 031°03'1 0.3
2014-Jul-23 09:32S 29°52' E 031°02'1 1.0
2014-Jul-23 08:30S 29°53' E 031°02'1 0.4
2014-Jul-23 05:33S 29°52' E 031°03'1 0.1
2014-Jul-22 20:33S 29°53' E 031°02'1 1.0
2014-Jul-22 19:31S 29°53' E 031°03'2 1.1
2014-Jul-22 18:04S 29°53' E 031°01'0 0.3
2014-Jul-22 17:23S 29°53' E 031°02'1 0.2
2014-Jul-22 12:33S 29°53' E 031°03'2 1.5
2014-Jul-22 11:31S 29°53' E 031°01'2 0.3
2014-Jul-22 06:33S 29°53' E 031°03'1 0.1
2014-Jul-21 22:33S 29°53' E 031°02'0 0.4
2014-Jul-21 21:33S 29°52' E 031°02'1 0.5
2014-Jul-21 20:33S 29°52' E 031°03'1 2.7
2014-Jul-21 20:15S 29°52' E 031°02'1 0.7
2014-Jul-21 19:26S 29°53' E 031°02'1 1.5
2014-Jul-21 18:33S 29°53' E 031°03'1 0.3
2014-Jul-21 15:20S 29°52' E 031°02'1 1.1
2014-Jul-21 14:33S 29°53' E 031°01'1 0.6
2014-Jul-21 13:22S 29°53' E 031°02'0 0.1
2014-Jul-21 11:25S 29°52' E 031°02'0 0.2
2014-Jul-21 10:32S 29°52' E 031°02'1 0.5
2014-Jul-21 09:26S 29°52' E 031°03'0 0.2
2014-Jul-21 08:33S 29°53' E 031°03'0 0.1
2014-Jul-21 07:22S 29°52' E 031°03'1 0.5
2014-Jul-21 06:10S 29°52' E 031°02'1 0.2
2014-Jul-21 01:24S 29°53' E 031°02'1 0.1
2014-Jul-20 18:12S 29°53' E 031°01'1 1.0
2014-Jul-20 17:33S 29°52' E 031°02'0 0.0
2014-Jul-20 14:32S 29°53' E 031°02'0 0.2
2014-Jul-20 12:33S 29°53' E 031°02'1 0.3
2014-Jul-20 09:29S 29°52' E 031°02'1 1.4
2014-Jul-20 08:33S 29°53' E 031°03'0 0.3
2014-Jul-20 07:34S 29°52' E 031°03'0 0.0
2014-Jul-20 06:34S 29°52' E 031°03'1 0.5
2014-Jul-20 04:10S 29°52' E 031°02'1 0.4
2014-Jul-20 02:30S 29°52' E 031°02'0 0.1
2014-Jul-19 22:32S 29°53' E 031°02'1 0.7
2014-Jul-19 21:30S 29°52' E 031°03'1 0.8
2014-Jul-19 20:33S 29°52' E 031°04'2 1.6
2014-Jul-19 19:24S 29°53' E 031°01'0 0.2
2014-Jul-19 18:27S 29°53' E 031°01'0 0.5
2014-Jul-19 17:32S 29°52' E 031°02'0 0.1
2014-Jul-19 13:28S 29°52' E 031°02'1 0.6
2014-Jul-19 12:31S 29°53' E 031°03'0 0.2
2014-Jul-19 11:26S 29°53' E 031°03'1 0.0
2014-Jul-18 14:31S 29°53' E 031°03'0 0.1
2014-Jul-18 09:33S 29°53' E 031°03'1 0.3
2014-Jul-18 06:18S 29°53' E 031°02'1 0.2
2014-Jul-18 01:05S 29°53' E 031°00'2 3.7
2014-Jul-18 00:32S 29°53' E 031°03'1 0.3
2014-Jul-17 20:32S 29°52' E 031°02'1 0.6
2014-Jul-17 19:32S 29°52' E 031°02'1 0.9
2014-Jul-17 18:32S 29°53' E 031°03'0 0.5
2014-Jul-17 17:32S 29°53' E 031°03'1 0.4
2014-Jul-17 14:03S 29°53' E 031°01'1 0.1
2014-Jul-16 23:33S 29°52' E 031°02'0 0.1
2014-Jul-16 19:04S 29°53' E 031°02'1 1.2
2014-Jul-16 18:15S 29°52' E 031°02'0 0.3
2014-Jul-16 17:31S 29°52' E 031°02'0 0.0
2014-Jul-16 15:33S 29°52' E 031°02'1 0.8
2014-Jul-16 14:30S 29°53' E 031°02'0 0.4
2014-Jul-16 13:31S 29°52' E 031°02'0 0.0
2014-Jul-16 10:33S 29°53' E 031°02'0 0.3
2014-Jul-16 09:23S 29°53' E 031°02'0 0.0
2014-Jul-16 08:29S 29°53' E 031°02'0 0.1
2014-Jul-16 07:17S 29°53' E 031°02'1 1.0
2014-Jul-16 06:27S 29°53' E 031°03'1 1.1
2014-Jul-16 05:33S 29°52' E 031°04'1 0.4
2014-Jul-16 02:29S 29°53' E 031°02'0 0.1
2014-Jul-15 19:18S 29°52' E 031°03'0 0.2
2014-Jul-15 18:28S 29°52' E 031°03'1 0.6
2014-Jul-15 17:15S 29°53' E 031°02'1 0.3
2014-Jul-15 14:33S 29°53' E 031°02'0 0.5
2014-Jul-15 13:33S 29°53' E 031°03'1 0.2
2014-Jul-15 07:19S 29°52' E 031°02'1 0.7
2014-Jul-15 06:33S 29°53' E 031°02'1 0.7
2014-Jul-15 05:26S 29°53' E 031°02'1 0.2
2014-Jul-15 00:28S 29°53' E 031°02'1 0.2
2014-Jul-14 21:17S 29°52' E 031°02'1 0.9
2014-Jul-14 20:26S 29°53' E 031°01'1 0.2
2014-Jul-14 15:17S 29°52' E 031°02'1 0.3
2014-Jul-14 11:29S 29°53' E 031°02'0 0.0
2014-Jul-14 10:30S 29°53' E 031°02'1 1.1
2014-Jul-14 09:31S 29°53' E 031°03'0 0.3
2014-Jul-14 08:29S 29°52' E 031°03'0 0.0
2014-Jul-14 06:28S 29°52' E 031°03'1 0.2
2014-Jul-14 01:28S 29°53' E 031°02'0 0.2
2014-Jul-14 00:24S 29°53' E 031°02'1 0.1
2014-Jul-13 17:25S 29°53' E 031°02'1 0.3
2014-Jul-13 14:31S 29°52' E 031°02'  

Dump ship's entire track history